sensor_id;sensor_type;location;lat;lon;timestamp;P1;durP1;ratioP1;P2;durP2;ratioP2
13028;SDS011;6581;42.662;23.402;2022-07-10T00:00:10;17.25;;;15.75;;
13028;SDS011;6581;42.662;23.402;2022-07-10T00:02:39;18.20;;;16.60;;
13028;SDS011;6581;42.662;23.402;2022-07-10T00:05:07;18.48;;;16.88;;
13028;SDS011;6581;42.662;23.402;2022-07-10T00:07:35;19.00;;;17.20;;
13028;SDS011;6581;42.662;23.402;2022-07-10T00:10:04;17.67;;;16.17;;
13028;SDS011;6581;42.662;23.402;2022-07-10T00:12:32;18.17;;;16.50;;
13028;SDS011;6581;42.662;23.402;2022-07-10T00:14:59;17.08;;;15.57;;
13028;SDS011;6581;42.662;23.402;2022-07-10T00:17:26;17.45;;;15.95;;
13028;SDS011;6581;42.662;23.402;2022-07-10T00:19:53;17.92;;;16.33;;
13028;SDS011;6581;42.662;23.402;2022-07-10T00:22:21;18.00;;;16.40;;
13028;SDS011;6581;42.662;23.402;2022-07-10T00:24:48;18.27;;;16.58;;
13028;SDS011;6581;42.662;23.402;2022-07-10T00:27:17;17.48;;;15.88;;
13028;SDS011;6581;42.662;23.402;2022-07-10T00:29:44;17.25;;;15.57;;
13028;SDS011;6581;42.662;23.402;2022-07-10T00:32:12;16.55;;;15.15;;
13028;SDS011;6581;42.662;23.402;2022-07-10T00:34:39;17.30;;;15.70;;
13028;SDS011;6581;42.662;23.402;2022-07-10T00:37:07;18.60;;;16.90;;
13028;SDS011;6581;42.662;23.402;2022-07-10T00:39:34;17.33;;;15.77;;
13028;SDS011;6581;42.662;23.402;2022-07-10T00:42:08;17.73;;;16.13;;
13028;SDS011;6581;42.662;23.402;2022-07-10T00:44:37;17.90;;;16.40;;
13028;SDS011;6581;42.662;23.402;2022-07-10T00:47:04;17.83;;;16.00;;
13028;SDS011;6581;42.662;23.402;2022-07-10T00:49:32;17.67;;;16.08;;
13028;SDS011;6581;42.662;23.402;2022-07-10T00:52:01;17.65;;;15.95;;
13028;SDS011;6581;42.662;23.402;2022-07-10T00:54:30;17.83;;;16.13;;
13028;SDS011;6581;42.662;23.402;2022-07-10T00:56:59;17.77;;;15.95;;
13028;SDS011;6581;42.662;23.402;2022-07-10T00:59:27;17.98;;;16.20;;
13028;SDS011;6581;42.662;23.402;2022-07-10T01:01:56;16.92;;;15.32;;
13028;SDS011;6581;42.662;23.402;2022-07-10T01:04:24;17.40;;;15.80;;
13028;SDS011;6581;42.662;23.402;2022-07-10T01:06:51;18.20;;;16.35;;
13028;SDS011;6581;42.662;23.402;2022-07-10T01:09:19;17.23;;;15.68;;
13028;SDS011;6581;42.662;23.402;2022-07-10T01:11:47;17.42;;;15.73;;
13028;SDS011;6581;42.662;23.402;2022-07-10T01:14:15;17.25;;;15.75;;
13028;SDS011;6581;42.662;23.402;2022-07-10T01:16:43;17.48;;;15.73;;
13028;SDS011;6581;42.662;23.402;2022-07-10T01:19:12;17.23;;;15.82;;
13028;SDS011;6581;42.662;23.402;2022-07-10T01:21:40;16.85;;;15.15;;
13028;SDS011;6581;42.662;23.402;2022-07-10T01:24:08;16.58;;;15.18;;
13028;SDS011;6581;42.662;23.402;2022-07-10T01:26:39;16.70;;;15.18;;
13028;SDS011;6581;42.662;23.402;2022-07-10T01:29:09;16.75;;;15.35;;
13028;SDS011;6581;42.662;23.402;2022-07-10T01:31:37;16.80;;;15.18;;
13028;SDS011;6581;42.662;23.402;2022-07-10T01:34:06;16.15;;;14.75;;
13028;SDS011;6581;42.662;23.402;2022-07-10T01:36:35;16.08;;;14.68;;
13028;SDS011;6581;42.662;23.402;2022-07-10T01:39:04;15.57;;;14.13;;
13028;SDS011;6581;42.662;23.402;2022-07-10T01:41:32;15.88;;;14.48;;
13028;SDS011;6581;42.662;23.402;2022-07-10T01:44:25;17.25;;;15.48;;
13028;SDS011;6581;42.662;23.402;2022-07-10T01:46:52;17.13;;;15.55;;
13028;SDS011;6581;42.662;23.402;2022-07-10T01:49:19;15.95;;;14.48;;
13028;SDS011;6581;42.662;23.402;2022-07-10T01:51:47;15.70;;;14.30;;
13028;SDS011;6581;42.662;23.402;2022-07-10T01:54:16;16.77;;;15.35;;
13028;SDS011;6581;42.662;23.402;2022-07-10T01:57:33;16.45;;;14.98;;
13028;SDS011;6581;42.662;23.402;2022-07-10T02:00:00;16.85;;;15.23;;
13028;SDS011;6581;42.662;23.402;2022-07-10T02:02:38;16.88;;;15.23;;
13028;SDS011;6581;42.662;23.402;2022-07-10T02:05:05;17.63;;;15.93;;
13028;SDS011;6581;42.662;23.402;2022-07-10T02:07:32;15.95;;;14.55;;
13028;SDS011;6581;42.662;23.402;2022-07-10T02:10:00;17.08;;;15.02;;
13028;SDS011;6581;42.662;23.402;2022-07-10T02:12:28;16.00;;;14.50;;
13028;SDS011;6581;42.662;23.402;2022-07-10T02:14:55;16.80;;;15.30;;
13028;SDS011;6581;42.662;23.402;2022-07-10T02:17:25;15.70;;;14.30;;
13028;SDS011;6581;42.662;23.402;2022-07-10T02:19:52;15.82;;;14.32;;
13028;SDS011;6581;42.662;23.402;2022-07-10T02:22:19;15.98;;;14.38;;
13028;SDS011;6581;42.662;23.402;2022-07-10T02:24:46;15.10;;;13.85;;
13028;SDS011;6581;42.662;23.402;2022-07-10T02:27:15;15.55;;;14.15;;
13028;SDS011;6581;42.662;23.402;2022-07-10T02:29:42;16.05;;;14.65;;
13028;SDS011;6581;42.662;23.402;2022-07-10T02:32:09;15.25;;;13.80;;
13028;SDS011;6581;42.662;23.402;2022-07-10T02:34:36;16.30;;;14.70;;
13028;SDS011;6581;42.662;23.402;2022-07-10T02:37:04;15.95;;;14.45;;
13028;SDS011;6581;42.662;23.402;2022-07-10T02:39:32;16.05;;;14.52;;
13028;SDS011;6581;42.662;23.402;2022-07-10T02:41:59;16.17;;;14.73;;
13028;SDS011;6581;42.662;23.402;2022-07-10T02:44:28;15.98;;;14.40;;
13028;SDS011;6581;42.662;23.402;2022-07-10T02:46:55;16.10;;;14.70;;
13028;SDS011;6581;42.662;23.402;2022-07-10T02:49:23;16.52;;;15.07;;
13028;SDS011;6581;42.662;23.402;2022-07-10T02:51:51;16.10;;;14.70;;
13028;SDS011;6581;42.662;23.402;2022-07-10T02:54:18;16.70;;;15.20;;
13028;SDS011;6581;42.662;23.402;2022-07-10T02:56:46;16.20;;;14.73;;
13028;SDS011;6581;42.662;23.402;2022-07-10T02:59:13;16.38;;;14.77;;
13028;SDS011;6581;42.662;23.402;2022-07-10T03:01:42;16.35;;;14.95;;
13028;SDS011;6581;42.662;23.402;2022-07-10T03:04:10;16.27;;;14.85;;
13028;SDS011;6581;42.662;23.402;2022-07-10T03:06:37;16.42;;;14.90;;
13028;SDS011;6581;42.662;23.402;2022-07-10T03:11:57;16.08;;;14.68;;
13028;SDS011;6581;42.662;23.402;2022-07-10T03:14:24;16.58;;;15.07;;
13028;SDS011;6581;42.662;23.402;2022-07-10T03:16:53;15.80;;;14.40;;
13028;SDS011;6581;42.662;23.402;2022-07-10T03:19:21;15.85;;;14.43;;
13028;SDS011;6581;42.662;23.402;2022-07-10T03:21:48;15.70;;;14.20;;
13028;SDS011;6581;42.662;23.402;2022-07-10T03:24:16;15.73;;;14.18;;
13028;SDS011;6581;42.662;23.402;2022-07-10T03:26:43;15.70;;;14.38;;
13028;SDS011;6581;42.662;23.402;2022-07-10T03:29:10;14.52;;;13.20;;
13028;SDS011;6581;42.662;23.402;2022-07-10T03:32:05;14.68;;;13.27;;
13028;SDS011;6581;42.662;23.402;2022-07-10T03:34:32;14.98;;;13.68;;
13028;SDS011;6581;42.662;23.402;2022-07-10T03:37:01;14.90;;;13.45;;
13028;SDS011;6581;42.662;23.402;2022-07-10T03:39:29;14.82;;;13.35;;
13028;SDS011;6581;42.662;23.402;2022-07-10T03:41:56;14.60;;;13.30;;
13028;SDS011;6581;42.662;23.402;2022-07-10T03:44:23;14.50;;;13.07;;
13028;SDS011;6581;42.662;23.402;2022-07-10T03:46:50;15.32;;;13.75;;
13028;SDS011;6581;42.662;23.402;2022-07-10T03:49:19;14.90;;;13.50;;
13028;SDS011;6581;42.662;23.402;2022-07-10T03:51:46;14.70;;;13.25;;
13028;SDS011;6581;42.662;23.402;2022-07-10T03:54:13;14.13;;;12.88;;
13028;SDS011;6581;42.662;23.402;2022-07-10T03:56:41;15.23;;;13.73;;
13028;SDS011;6581;42.662;23.402;2022-07-10T03:59:26;14.75;;;13.38;;
13028;SDS011;6581;42.662;23.402;2022-07-10T04:01:53;14.07;;;12.73;;
13028;SDS011;6581;42.662;23.402;2022-07-10T04:04:22;15.23;;;13.68;;
13028;SDS011;6581;42.662;23.402;2022-07-10T04:06:49;14.27;;;13.07;;
13028;SDS011;6581;42.662;23.402;2022-07-10T04:09:16;15.00;;;13.70;;
13028;SDS011;6581;42.662;23.402;2022-07-10T04:11:43;14.20;;;13.00;;
13028;SDS011;6581;42.662;23.402;2022-07-10T04:14:11;14.82;;;13.52;;
13028;SDS011;6581;42.662;23.402;2022-07-10T04:16:38;14.35;;;12.98;;
13028;SDS011;6581;42.662;23.402;2022-07-10T04:19:05;14.57;;;13.27;;
13028;SDS011;6581;42.662;23.402;2022-07-10T04:21:34;14.68;;;13.25;;
13028;SDS011;6581;42.662;23.402;2022-07-10T04:24:02;13.32;;;12.00;;
13028;SDS011;6581;42.662;23.402;2022-07-10T04:26:30;13.93;;;12.73;;
13028;SDS011;6581;42.662;23.402;2022-07-10T04:28:58;13.88;;;12.68;;
13028;SDS011;6581;42.662;23.402;2022-07-10T04:31:25;14.10;;;12.85;;
13028;SDS011;6581;42.662;23.402;2022-07-10T04:33:52;13.77;;;12.57;;
13028;SDS011;6581;42.662;23.402;2022-07-10T04:36:21;14.00;;;12.63;;
13028;SDS011;6581;42.662;23.402;2022-07-10T04:38:49;13.90;;;12.68;;
13028;SDS011;6581;42.662;23.402;2022-07-10T04:41:17;14.40;;;12.90;;
13028;SDS011;6581;42.662;23.402;2022-07-10T04:43:44;13.98;;;12.52;;
13028;SDS011;6581;42.662;23.402;2022-07-10T04:46:11;13.35;;;12.15;;
13028;SDS011;6581;42.662;23.402;2022-07-10T04:48:39;14.43;;;12.98;;
13028;SDS011;6581;42.662;23.402;2022-07-10T04:51:06;13.48;;;12.18;;
13028;SDS011;6581;42.662;23.402;2022-07-10T04:53:34;13.07;;;11.98;;
13028;SDS011;6581;42.662;23.402;2022-07-10T04:56:03;13.43;;;12.32;;
13028;SDS011;6581;42.662;23.402;2022-07-10T04:58:31;13.73;;;12.43;;
13028;SDS011;6581;42.662;23.402;2022-07-10T05:00:58;13.73;;;12.52;;
13028;SDS011;6581;42.662;23.402;2022-07-10T05:03:25;12.88;;;11.77;;
13028;SDS011;6581;42.662;23.402;2022-07-10T05:05:52;12.90;;;11.70;;
13028;SDS011;6581;42.662;23.402;2022-07-10T05:08:19;13.70;;;12.40;;
13028;SDS011;6581;42.662;23.402;2022-07-10T05:10:46;13.48;;;12.15;;
13028;SDS011;6581;42.662;23.402;2022-07-10T05:13:15;12.00;;;10.98;;
13028;SDS011;6581;42.662;23.402;2022-07-10T05:15:42;12.98;;;11.13;;
13028;SDS011;6581;42.662;23.402;2022-07-10T05:18:12;11.63;;;10.60;;
13028;SDS011;6581;42.662;23.402;2022-07-10T05:20:39;11.38;;;10.38;;
13028;SDS011;6581;42.662;23.402;2022-07-10T05:23:09;11.25;;;10.25;;
13028;SDS011;6581;42.662;23.402;2022-07-10T05:25:37;14.68;;;13.25;;
13028;SDS011;6581;42.662;23.402;2022-07-10T05:28:04;12.60;;;11.60;;
13028;SDS011;6581;42.662;23.402;2022-07-10T05:30:33;15.23;;;13.73;;
13028;SDS011;6581;42.662;23.402;2022-07-10T05:33:00;14.55;;;13.10;;
13028;SDS011;6581;42.662;23.402;2022-07-10T05:35:28;12.15;;;11.05;;
13028;SDS011;6581;42.662;23.402;2022-07-10T05:37:55;13.07;;;11.00;;
13028;SDS011;6581;42.662;23.402;2022-07-10T05:40:22;11.43;;;10.38;;
13028;SDS011;6581;42.662;23.402;2022-07-10T05:42:50;11.55;;;10.40;;
13028;SDS011;6581;42.662;23.402;2022-07-10T05:45:17;11.98;;;10.80;;
13028;SDS011;6581;42.662;23.402;2022-07-10T05:47:46;12.00;;;10.90;;
13028;SDS011;6581;42.662;23.402;2022-07-10T05:50:14;11.77;;;10.68;;
13028;SDS011;6581;42.662;23.402;2022-07-10T05:52:41;10.77;;;9.77;;
13028;SDS011;6581;42.662;23.402;2022-07-10T05:55:09;10.57;;;9.57;;
13028;SDS011;6581;42.662;23.402;2022-07-10T05:57:36;10.65;;;9.77;;
13028;SDS011;6581;42.662;23.402;2022-07-10T06:00:04;14.18;;;10.57;;
13028;SDS011;6581;42.662;23.402;2022-07-10T06:02:39;10.60;;;9.60;;
13028;SDS011;6581;42.662;23.402;2022-07-10T06:05:08;9.93;;;9.02;;
13028;SDS011;6581;42.662;23.402;2022-07-10T06:07:35;11.15;;;10.02;;
13028;SDS011;6581;42.662;23.402;2022-07-10T06:10:03;10.77;;;9.77;;
13028;SDS011;6581;42.662;23.402;2022-07-10T06:12:31;9.98;;;9.10;;
13028;SDS011;6581;42.662;23.402;2022-07-10T06:14:59;10.63;;;9.73;;
13028;SDS011;6581;42.662;23.402;2022-07-10T06:17:26;10.60;;;9.27;;
13028;SDS011;6581;42.662;23.402;2022-07-10T06:19:53;9.98;;;9.07;;
13028;SDS011;6581;42.662;23.402;2022-07-10T06:22:22;10.27;;;9.30;;
13028;SDS011;6581;42.662;23.402;2022-07-10T06:24:59;9.57;;;8.77;;
13028;SDS011;6581;42.662;23.402;2022-07-10T06:27:28;9.45;;;8.55;;
13028;SDS011;6581;42.662;23.402;2022-07-10T06:29:55;9.07;;;8.27;;
13028;SDS011;6581;42.662;23.402;2022-07-10T06:32:48;9.15;;;8.30;;
13028;SDS011;6581;42.662;23.402;2022-07-10T06:35:15;8.68;;;7.88;;
13028;SDS011;6581;42.662;23.402;2022-07-10T06:38:08;9.70;;;8.68;;
13028;SDS011;6581;42.662;23.402;2022-07-10T06:40:36;7.93;;;7.30;;
13028;SDS011;6581;42.662;23.402;2022-07-10T06:43:04;7.93;;;7.30;;
13028;SDS011;6581;42.662;23.402;2022-07-10T06:45:31;8.95;;;8.07;;
13028;SDS011;6581;42.662;23.402;2022-07-10T06:48:02;8.73;;;8.02;;
13028;SDS011;6581;42.662;23.402;2022-07-10T06:50:29;8.43;;;7.50;;
13028;SDS011;6581;42.662;23.402;2022-07-10T06:53:00;9.85;;;7.55;;
13028;SDS011;6581;42.662;23.402;2022-07-10T06:55:31;8.25;;;7.40;;
13028;SDS011;6581;42.662;23.402;2022-07-10T06:57:59;8.27;;;7.68;;
13028;SDS011;6581;42.662;23.402;2022-07-10T07:00:27;7.18;;;6.65;;
13028;SDS011;6581;42.662;23.402;2022-07-10T07:02:54;7.72;;;7.03;;
13028;SDS011;6581;42.662;23.402;2022-07-10T07:05:22;7.93;;;7.22;;
13028;SDS011;6581;42.662;23.402;2022-07-10T07:07:49;9.10;;;6.88;;
13028;SDS011;6581;42.662;23.402;2022-07-10T07:10:17;8.50;;;7.60;;
13028;SDS011;6581;42.662;23.402;2022-07-10T07:12:46;7.53;;;6.93;;
13028;SDS011;6581;42.662;23.402;2022-07-10T07:15:15;7.40;;;6.70;;
13028;SDS011;6581;42.662;23.402;2022-07-10T07:17:51;7.18;;;6.60;;
13028;SDS011;6581;42.662;23.402;2022-07-10T07:20:37;9.60;;;7.20;;
13028;SDS011;6581;42.662;23.402;2022-07-10T07:23:22;6.50;;;6.00;;
13028;SDS011;6581;42.662;23.402;2022-07-10T07:25:50;6.60;;;5.97;;
13028;SDS011;6581;42.662;23.402;2022-07-10T07:28:19;6.80;;;6.20;;
13028;SDS011;6581;42.662;23.402;2022-07-10T07:31:10;5.53;;;5.13;;
13028;SDS011;6581;42.662;23.402;2022-07-10T07:33:37;5.90;;;5.40;;
13028;SDS011;6581;42.662;23.402;2022-07-10T07:36:04;8.95;;;6.25;;
13028;SDS011;6581;42.662;23.402;2022-07-10T07:38:32;6.18;;;5.65;;
13028;SDS011;6581;42.662;23.402;2022-07-10T07:41:00;6.47;;;5.93;;
13028;SDS011;6581;42.662;23.402;2022-07-10T07:43:28;6.97;;;5.95;;
13028;SDS011;6581;42.662;23.402;2022-07-10T07:45:56;7.35;;;6.70;;
13028;SDS011;6581;42.662;23.402;2022-07-10T07:51:16;9.38;;;6.72;;
13028;SDS011;6581;42.662;23.402;2022-07-10T07:53:44;7.88;;;7.03;;
13028;SDS011;6581;42.662;23.402;2022-07-10T07:56:11;6.97;;;6.20;;
13028;SDS011;6581;42.662;23.402;2022-07-10T07:58:40;6.93;;;6.32;;
13028;SDS011;6581;42.662;23.402;2022-07-10T08:01:07;6.50;;;5.90;;
13028;SDS011;6581;42.662;23.402;2022-07-10T08:03:35;8.48;;;6.15;;
13028;SDS011;6581;42.662;23.402;2022-07-10T08:06:02;7.18;;;6.32;;
13028;SDS011;6581;42.662;23.402;2022-07-10T08:08:29;6.80;;;6.20;;
13028;SDS011;6581;42.662;23.402;2022-07-10T08:10:57;6.03;;;5.45;;
13028;SDS011;6581;42.662;23.402;2022-07-10T08:13:24;6.10;;;5.63;;
13028;SDS011;6581;42.662;23.402;2022-07-10T08:15:53;7.05;;;5.72;;
13028;SDS011;6581;42.662;23.402;2022-07-10T08:18:21;6.68;;;5.88;;
13028;SDS011;6581;42.662;23.402;2022-07-10T08:20:49;6.45;;;5.80;;
13028;SDS011;6581;42.662;23.402;2022-07-10T08:23:16;6.45;;;5.93;;
13028;SDS011;6581;42.662;23.402;2022-07-10T08:25:44;6.00;;;5.50;;
13028;SDS011;6581;42.662;23.402;2022-07-10T08:28:11;6.28;;;5.78;;
13028;SDS011;6581;42.662;23.402;2022-07-10T08:30:38;5.93;;;5.45;;
13028;SDS011;6581;42.662;23.402;2022-07-10T08:33:08;6.15;;;5.53;;
13028;SDS011;6581;42.662;23.402;2022-07-10T08:35:36;6.35;;;5.45;;
13028;SDS011;6581;42.662;23.402;2022-07-10T08:38:03;5.72;;;5.22;;
13028;SDS011;6581;42.662;23.402;2022-07-10T08:40:56;5.78;;;5.03;;
13028;SDS011;6581;42.662;23.402;2022-07-10T08:43:25;5.35;;;4.90;;
13028;SDS011;6581;42.662;23.402;2022-07-10T08:45:52;5.30;;;4.85;;
13028;SDS011;6581;42.662;23.402;2022-07-10T08:48:22;4.60;;;4.30;;
13028;SDS011;6581;42.662;23.402;2022-07-10T08:50:51;6.65;;;4.95;;
13028;SDS011;6581;42.662;23.402;2022-07-10T08:53:29;4.50;;;4.20;;
13028;SDS011;6581;42.662;23.402;2022-07-10T08:55:59;5.20;;;4.68;;
13028;SDS011;6581;42.662;23.402;2022-07-10T08:58:26;5.90;;;5.00;;
13028;SDS011;6581;42.662;23.402;2022-07-10T09:00:55;5.65;;;4.38;;
13028;SDS011;6581;42.662;23.402;2022-07-10T09:03:26;4.80;;;4.40;;
13028;SDS011;6581;42.662;23.402;2022-07-10T09:05:57;5.63;;;4.80;;
13028;SDS011;6581;42.662;23.402;2022-07-10T09:08:24;6.05;;;5.05;;
13028;SDS011;6581;42.662;23.402;2022-07-10T09:11:13;5.13;;;4.72;;
13028;SDS011;6581;42.662;23.402;2022-07-10T09:13:48;6.63;;;5.95;;
13028;SDS011;6581;42.662;23.402;2022-07-10T09:16:21;24.17;;;19.95;;
13028;SDS011;6581;42.662;23.402;2022-07-10T09:18:51;7.10;;;6.40;;
13028;SDS011;6581;42.662;23.402;2022-07-10T09:21:20;26.08;;;22.20;;
13028;SDS011;6581;42.662;23.402;2022-07-10T09:23:48;5.10;;;4.70;;
13028;SDS011;6581;42.662;23.402;2022-07-10T09:26:15;5.20;;;4.70;;
13028;SDS011;6581;42.662;23.402;2022-07-10T09:28:43;5.50;;;4.80;;
13028;SDS011;6581;42.662;23.402;2022-07-10T09:31:11;5.43;;;4.55;;
13028;SDS011;6581;42.662;23.402;2022-07-10T09:33:39;4.85;;;4.35;;
13028;SDS011;6581;42.662;23.402;2022-07-10T09:36:08;5.15;;;4.65;;
13028;SDS011;6581;42.662;23.402;2022-07-10T09:38:50;4.82;;;4.40;;
13028;SDS011;6581;42.662;23.402;2022-07-10T09:41:22;5.63;;;4.45;;
13028;SDS011;6581;42.662;23.402;2022-07-10T09:43:51;5.53;;;4.78;;
13028;SDS011;6581;42.662;23.402;2022-07-10T09:46:20;7.82;;;4.70;;
13028;SDS011;6581;42.662;23.402;2022-07-10T09:48:57;4.90;;;4.50;;
13028;SDS011;6581;42.662;23.402;2022-07-10T09:51:31;5.72;;;4.50;;
13028;SDS011;6581;42.662;23.402;2022-07-10T09:54:00;5.00;;;4.60;;
13028;SDS011;6581;42.662;23.402;2022-07-10T09:56:33;4.57;;;4.25;;
13028;SDS011;6581;42.662;23.402;2022-07-10T09:59:10;5.00;;;4.60;;
13028;SDS011;6581;42.662;23.402;2022-07-10T10:01:43;6.00;;;5.50;;
13028;SDS011;6581;42.662;23.402;2022-07-10T10:04:12;5.07;;;4.38;;
13028;SDS011;6581;42.662;23.402;2022-07-10T10:06:41;6.13;;;4.70;;
13028;SDS011;6581;42.662;23.402;2022-07-10T10:09:12;5.43;;;4.63;;
13028;SDS011;6581;42.662;23.402;2022-07-10T10:11:43;4.90;;;4.50;;
13028;SDS011;6581;42.662;23.402;2022-07-10T10:14:11;4.80;;;4.35;;
13028;SDS011;6581;42.662;23.402;2022-07-10T10:16:43;6.05;;;4.40;;
13028;SDS011;6581;42.662;23.402;2022-07-10T10:19:11;4.82;;;4.40;;
13028;SDS011;6581;42.662;23.402;2022-07-10T10:21:59;4.68;;;4.28;;
13028;SDS011;6581;42.662;23.402;2022-07-10T10:24:31;4.60;;;4.28;;
13028;SDS011;6581;42.662;23.402;2022-07-10T10:26:59;5.75;;;5.15;;
13028;SDS011;6581;42.662;23.402;2022-07-10T10:29:27;5.15;;;4.65;;
13028;SDS011;6581;42.662;23.402;2022-07-10T10:31:55;4.35;;;3.95;;
13028;SDS011;6581;42.662;23.402;2022-07-10T10:34:39;4.80;;;4.40;;
13028;SDS011;6581;42.662;23.402;2022-07-10T10:40:02;3.83;;;3.53;;
13028;SDS011;6581;42.662;23.402;2022-07-10T10:42:34;7.13;;;6.57;;
13028;SDS011;6581;42.662;23.402;2022-07-10T10:45:25;4.70;;;3.80;;
13028;SDS011;6581;42.662;23.402;2022-07-10T10:47:59;4.00;;;3.70;;
13028;SDS011;6581;42.662;23.402;2022-07-10T10:50:35;3.78;;;3.30;;
13028;SDS011;6581;42.662;23.402;2022-07-10T10:53:13;5.55;;;3.63;;
13028;SDS011;6581;42.662;23.402;2022-07-10T10:58:52;4.38;;;4.00;;
13028;SDS011;6581;42.662;23.402;2022-07-10T11:01:29;4.55;;;4.15;;
13028;SDS011;6581;42.662;23.402;2022-07-10T11:04:16;3.90;;;3.58;;
13028;SDS011;6581;42.662;23.402;2022-07-10T11:06:45;4.47;;;3.95;;
13028;SDS011;6581;42.662;23.402;2022-07-10T11:12:09;5.85;;;4.10;;
13028;SDS011;6581;42.662;23.402;2022-07-10T11:14:38;3.70;;;3.40;;
13028;SDS011;6581;42.662;23.402;2022-07-10T11:17:08;3.97;;;3.60;;
13028;SDS011;6581;42.662;23.402;2022-07-10T11:19:35;3.60;;;3.30;;
13028;SDS011;6581;42.662;23.402;2022-07-10T11:22:07;3.65;;;3.33;;
13028;SDS011;6581;42.662;23.402;2022-07-10T11:24:55;3.83;;;3.50;;
13028;SDS011;6581;42.662;23.402;2022-07-10T11:27:36;6.30;;;3.92;;
13028;SDS011;6581;42.662;23.402;2022-07-10T11:30:19;3.85;;;3.55;;
13028;SDS011;6581;42.662;23.402;2022-07-10T11:32:46;4.53;;;3.75;;
13028;SDS011;6581;42.662;23.402;2022-07-10T11:35:15;4.05;;;3.70;;
13028;SDS011;6581;42.662;23.402;2022-07-10T11:37:49;5.28;;;3.95;;
13028;SDS011;6581;42.662;23.402;2022-07-10T11:40:19;3.38;;;3.08;;
13028;SDS011;6581;42.662;23.402;2022-07-10T11:42:51;3.25;;;2.95;;
13028;SDS011;6581;42.662;23.402;2022-07-10T11:45:26;5.70;;;3.20;;
13028;SDS011;6581;42.662;23.402;2022-07-10T11:47:55;2.58;;;2.47;;
13028;SDS011;6581;42.662;23.402;2022-07-10T11:50:23;4.10;;;2.80;;
13028;SDS011;6581;42.662;23.402;2022-07-10T11:52:52;3.97;;;2.70;;
13028;SDS011;6581;42.662;23.402;2022-07-10T11:55:22;3.28;;;2.97;;
13028;SDS011;6581;42.662;23.402;2022-07-10T11:57:50;2.80;;;2.60;;
13028;SDS011;6581;42.662;23.402;2022-07-10T12:00:22;2.80;;;2.60;;
13028;SDS011;6581;42.662;23.402;2022-07-10T12:02:51;3.78;;;2.72;;
13028;SDS011;6581;42.662;23.402;2022-07-10T12:05:31;4.60;;;2.90;;
13028;SDS011;6581;42.662;23.402;2022-07-10T12:07:59;3.00;;;2.38;;
13028;SDS011;6581;42.662;23.402;2022-07-10T12:10:28;3.13;;;2.92;;
13028;SDS011;6581;42.662;23.402;2022-07-10T12:13:02;3.83;;;3.03;;
13028;SDS011;6581;42.662;23.402;2022-07-10T12:15:32;4.85;;;2.90;;
13028;SDS011;6581;42.662;23.402;2022-07-10T12:18:03;3.80;;;3.10;;
13028;SDS011;6581;42.662;23.402;2022-07-10T12:20:32;3.08;;;2.80;;
13028;SDS011;6581;42.662;23.402;2022-07-10T12:23:00;3.78;;;3.20;;
13028;SDS011;6581;42.662;23.402;2022-07-10T12:25:29;3.40;;;3.20;;
13028;SDS011;6581;42.662;23.402;2022-07-10T12:27:57;3.50;;;3.20;;
13028;SDS011;6581;42.662;23.402;2022-07-10T12:30:40;3.50;;;3.20;;
13028;SDS011;6581;42.662;23.402;2022-07-10T12:33:10;3.40;;;3.10;;
13028;SDS011;6581;42.662;23.402;2022-07-10T12:38:27;4.93;;;3.30;;
13028;SDS011;6581;42.662;23.402;2022-07-10T12:41:07;3.35;;;2.97;;
13028;SDS011;6581;42.662;23.402;2022-07-10T12:43:35;4.22;;;3.65;;
13028;SDS011;6581;42.662;23.402;2022-07-10T12:46:12;4.53;;;3.40;;
13028;SDS011;6581;42.662;23.402;2022-07-10T12:48:42;4.38;;;3.20;;
13028;SDS011;6581;42.662;23.402;2022-07-10T12:51:23;2.88;;;2.50;;
13028;SDS011;6581;42.662;23.402;2022-07-10T12:53:51;4.40;;;4.10;;
13028;SDS011;6581;42.662;23.402;2022-07-10T12:56:45;2.78;;;2.58;;
13028;SDS011;6581;42.662;23.402;2022-07-10T12:59:23;3.22;;;2.70;;
13028;SDS011;6581;42.662;23.402;2022-07-10T13:01:51;3.10;;;2.78;;
13028;SDS011;6581;42.662;23.402;2022-07-10T13:04:22;3.60;;;2.70;;
13028;SDS011;6581;42.662;23.402;2022-07-10T13:06:49;2.55;;;2.22;;
13028;SDS011;6581;42.662;23.402;2022-07-10T13:09:21;2.42;;;2.33;;
13028;SDS011;6581;42.662;23.402;2022-07-10T13:11:51;2.92;;;2.53;;
13028;SDS011;6581;42.662;23.402;2022-07-10T13:14:18;3.40;;;3.08;;
13028;SDS011;6581;42.662;23.402;2022-07-10T13:16:46;2.85;;;2.60;;
13028;SDS011;6581;42.662;23.402;2022-07-10T13:19:14;2.67;;;2.50;;
13028;SDS011;6581;42.662;23.402;2022-07-10T13:21:41;2.63;;;2.42;;
13028;SDS011;6581;42.662;23.402;2022-07-10T13:24:08;3.90;;;3.50;;
13028;SDS011;6581;42.662;23.402;2022-07-10T13:26:36;3.60;;;3.05;;
13028;SDS011;6581;42.662;23.402;2022-07-10T13:29:05;4.07;;;2.95;;
13028;SDS011;6581;42.662;23.402;2022-07-10T13:31:33;3.30;;;2.95;;
13028;SDS011;6581;42.662;23.402;2022-07-10T13:34:00;3.03;;;2.83;;
13028;SDS011;6581;42.662;23.402;2022-07-10T13:36:28;4.00;;;3.28;;
13028;SDS011;6581;42.662;23.402;2022-07-10T13:38:55;5.40;;;2.80;;
13028;SDS011;6581;42.662;23.402;2022-07-10T13:41:23;3.88;;;2.35;;
13028;SDS011;6581;42.662;23.402;2022-07-10T13:43:51;2.53;;;2.00;;
13028;SDS011;6581;42.662;23.402;2022-07-10T13:46:19;1.85;;;1.70;;
13028;SDS011;6581;42.662;23.402;2022-07-10T13:48:46;2.55;;;2.35;;
13028;SDS011;6581;42.662;23.402;2022-07-10T13:51:14;2.60;;;1.75;;
13028;SDS011;6581;42.662;23.402;2022-07-10T13:53:42;1.80;;;1.70;;
13028;SDS011;6581;42.662;23.402;2022-07-10T13:56:09;2.35;;;2.20;;
13028;SDS011;6581;42.662;23.402;2022-07-10T13:58:37;1.70;;;1.60;;
13028;SDS011;6581;42.662;23.402;2022-07-10T14:01:05;1.58;;;1.48;;
13028;SDS011;6581;42.662;23.402;2022-07-10T14:03:33;4.60;;;1.80;;
13028;SDS011;6581;42.662;23.402;2022-07-10T14:06:01;2.53;;;1.60;;
13028;SDS011;6581;42.662;23.402;2022-07-10T14:08:29;2.75;;;1.60;;
13028;SDS011;6581;42.662;23.402;2022-07-10T14:10:56;1.80;;;1.70;;
13028;SDS011;6581;42.662;23.402;2022-07-10T14:13:23;3.05;;;1.70;;
13028;SDS011;6581;42.662;23.402;2022-07-10T14:15:51;2.20;;;2.00;;
13028;SDS011;6581;42.662;23.402;2022-07-10T14:18:19;1.90;;;1.80;;
13028;SDS011;6581;42.662;23.402;2022-07-10T14:21:13;2.40;;;1.50;;
13028;SDS011;6581;42.662;23.402;2022-07-10T14:23:40;3.00;;;2.00;;
13028;SDS011;6581;42.662;23.402;2022-07-10T14:26:10;2.17;;;1.60;;
13028;SDS011;6581;42.662;23.402;2022-07-10T14:28:38;2.00;;;1.70;;
13028;SDS011;6581;42.662;23.402;2022-07-10T14:31:06;1.83;;;1.50;;
13028;SDS011;6581;42.662;23.402;2022-07-10T14:33:34;5.25;;;2.10;;
13028;SDS011;6581;42.662;23.402;2022-07-10T14:36:02;1.75;;;1.60;;
13028;SDS011;6581;42.662;23.402;2022-07-10T14:38:31;1.80;;;1.70;;
13028;SDS011;6581;42.662;23.402;2022-07-10T14:41:00;5.15;;;2.13;;
13028;SDS011;6581;42.662;23.402;2022-07-10T14:43:27;2.13;;;1.60;;
13028;SDS011;6581;42.662;23.402;2022-07-10T14:45:59;3.30;;;2.17;;
13028;SDS011;6581;42.662;23.402;2022-07-10T14:48:29;6.22;;;4.82;;
13028;SDS011;6581;42.662;23.402;2022-07-10T14:50:57;7.93;;;6.45;;
13028;SDS011;6581;42.662;23.402;2022-07-10T14:53:24;4.30;;;2.50;;
13028;SDS011;6581;42.662;23.402;2022-07-10T14:55:54;1.92;;;1.83;;
13028;SDS011;6581;42.662;23.402;2022-07-10T14:58:21;1.80;;;1.60;;
13028;SDS011;6581;42.662;23.402;2022-07-10T15:00:49;2.63;;;2.08;;
13028;SDS011;6581;42.662;23.402;2022-07-10T15:03:16;4.47;;;3.83;;
13028;SDS011;6581;42.662;23.402;2022-07-10T15:05:44;2.22;;;1.92;;
13028;SDS011;6581;42.662;23.402;2022-07-10T15:08:12;3.67;;;3.30;;